Time;durP1;ratioP1;P1;durP2;ratioP2;P2;SDS_P1;SDS_P2;PMS_P1;PMS_P2;Temp;Humidity;BMP_temperature;BMP_pressure;BME280_temperature;BME280_humidity;BME280_pressure;Samples;Min_cycle;Max_cycle;Signal;HPM_P1;HPM_P2
2022/06/16 00:00:19;;;;;;;4.40;1.25;;;;;;;11.90;84.95;101940.25;2046465;28;20048;-69
2022/06/16 00:01:23;;;;;;;6.70;1.77;;;;;;;11.89;84.90;101939.38;2046817;28;20048;-69
2022/06/16 00:02:25;;;;;;;3.53;1.08;;;;;;;11.85;84.78;101935.84;2046606;28;30049;-70
2022/06/16 00:03:27;;;;;;;3.63;1.17;;;;;;;11.85;85.52;101935.84;2047034;28;20094;-70
2022/06/16 00:04:30;;;;;;;5.10;1.48;;;;;;;11.83;85.30;101936.78;2047166;28;20206;-70
2022/06/16 00:05:35;;;;;;;3.50;1.45;;;;;;;11.86;85.87;101939.41;2047165;28;20036;-70
2022/06/16 00:06:40;;;;;;;3.65;1.55;;;;;;;11.82;85.51;101933.19;2046073;28;20039;-70
2022/06/16 00:07:42;;;;;;;6.93;2.25;;;;;;;11.83;85.79;101943.03;2046313;28;20921;-70
2022/06/16 00:08:46;;;;;;;5.13;1.63;;;;;;;11.79;85.65;101935.00;2049498;28;20570;-70
2022/06/16 00:09:48;;;;;;;5.50;2.97;;;;;;;11.75;85.46;101944.00;2046429;28;36242;-70
2022/06/16 00:12:14;;;;;;;4.65;1.70;;;;;;;11.71;85.11;101951.22;2046812;28;20032;-70
2022/06/16 00:13:19;;;;;;;4.53;1.58;;;;;;;11.70;85.32;101946.78;2046992;28;20931;-70
2022/06/16 00:14:27;;;;;;;5.28;1.52;;;;;;;11.65;85.67;101949.50;2046785;28;20058;-69
2022/06/16 00:15:30;;;;;;;5.28;1.42;;;;;;;11.61;85.26;101939.72;2046261;28;37172;-69
2022/06/16 00:16:32;;;;;;;6.03;1.98;;;;;;;11.62;86.19;101943.28;2047064;28;20044;-70
2022/06/16 00:17:34;;;;;;;2.42;1.75;;;;;;;11.61;85.86;101941.47;2046073;28;20036;-70
2022/06/16 00:18:39;;;;;;;10.75;2.15;;;;;;;11.59;86.05;101943.28;2046571;28;20048;-70
2022/06/16 00:19:41;;;;;;;2.65;1.38;;;;;;;11.57;86.25;101947.78;2046689;28;20032;-69
2022/06/16 00:20:43;;;;;;;5.03;1.98;;;;;;;11.55;85.87;101945.13;2046356;28;34055;-69
2022/06/16 00:21:45;;;;;;;2.40;0.90;;;;;;;11.54;86.01;101947.81;2046644;28;30077;-69
2022/06/16 00:22:47;;;;;;;3.50;1.17;;;;;;;11.50;85.87;101948.75;2046225;28;35296;-69
2022/06/16 00:23:49;;;;;;;5.35;2.13;;;;;;;11.47;85.97;101949.69;2047072;28;20957;-68
2022/06/16 00:24:50;;;;;;;3.05;2.13;;;;;;;11.44;86.59;101955.97;2047246;28;20082;-69
2022/06/16 00:25:56;;;;;;;6.95;3.42;;;;;;;11.42;86.37;101954.22;2047054;28;20122;-69
2022/06/16 00:26:58;;;;;;;4.47;2.38;;;;;;;11.40;86.60;101958.72;2046527;28;29516;-69
2022/06/16 00:28:03;;;;;;;5.90;2.30;;;;;;;11.39;87.13;101951.56;2046996;28;20044;-69
2022/06/16 00:29:04;;;;;;;3.92;1.88;;;;;;;11.35;86.50;101947.13;2047103;28;20047;-71
2022/06/16 00:30:15;;;;;;;4.22;1.70;;;;;;;11.31;86.89;101942.72;2046707;28;20881;-68
2022/06/16 00:31:21;;;;;;;6.72;2.60;;;;;;;11.34;88.29;101927.50;2047028;28;20781;-68
2022/06/16 00:32:23;;;;;;;6.60;2.38;;;;;;;11.27;87.67;101932.00;2047250;28;20162;-69
2022/06/16 00:33:25;;;;;;;5.63;1.67;;;;;;;11.27;87.64;101933.81;2046573;28;20820;-68
2022/06/16 00:34:28;;;;;;;4.13;2.05;;;;;;;11.22;87.73;101941.00;2047162;28;20047;-68
2022/06/16 00:35:30;;;;;;;4.80;1.90;;;;;;;11.17;87.61;101949.09;2046795;28;24172;-68
2022/06/16 00:36:32;;;;;;;5.78;2.10;;;;;;;11.14;87.56;101940.19;2047018;28;20047;-68
2022/06/16 00:37:34;;;;;;;3.90;1.63;;;;;;;11.12;87.91;101947.34;2046953;28;20121;-69
2022/06/16 00:38:39;;;;;;;5.13;2.17;;;;;;;11.08;88.02;101942.00;2054098;28;20118;-68
2022/06/16 00:39:41;;;;;;;5.68;2.05;;;;;;;11.03;88.00;101933.13;2054394;28;27603;-69
2022/06/16 00:40:42;;;;;;;4.55;2.20;;;;;;;11.03;88.28;101946.50;2054053;28;24581;-69
2022/06/16 00:41:45;;;;;;;3.88;1.95;;;;;;;10.98;87.92;101940.34;2046531;28;31898;-69
2022/06/16 00:42:51;;;;;;;4.97;1.85;;;;;;;10.97;88.62;101943.03;2047127;28;20040;-69
2022/06/16 00:43:57;;;;;;;5.43;2.03;;;;;;;10.94;88.49;101937.69;2047068;28;20730;-68
2022/06/16 00:45:44;;;;;;;5.95;1.95;;;;;;;10.89;88.56;101935.03;2054113;28;20047;-69
2022/06/16 00:46:46;;;;;;;3.92;2.15;;;;;;;10.83;88.76;101927.94;2049026;28;20095;-69
2022/06/16 00:47:48;;;;;;;10.75;6.10;;;;;;;10.79;88.67;101930.66;2047689;28;20197;-69
2022/06/16 00:49:04;;;;;;;7.15;2.85;;;;;;;10.76;88.99;101930.69;2046807;28;20040;-70
2022/06/16 00:50:10;;;;;;;7.72;3.63;;;;;;;10.74;89.18;101935.16;2045712;28;20032;-69
2022/06/16 00:51:54;;;;;;;5.70;2.58;;;;;;;10.70;89.51;101929.81;2046047;28;20162;-68
2022/06/16 00:52:58;;;;;;;4.97;1.90;;;;;;;10.67;89.28;101928.97;2053240;28;29902;-70
2022/06/16 00:54:34;;;;;;;3.78;2.30;;;;;;;10.64;89.39;101927.19;2053589;28;20189;-68
2022/06/16 00:55:39;;;;;;;4.80;1.77;;;;;;;10.61;89.50;101921.88;2045762;28;20055;-68
2022/06/16 00:56:41;;;;;;;6.75;2.45;;;;;;;10.58;89.29;101929.03;2046202;28;20170;-70
2022/06/16 00:57:48;;;;;;;4.43;2.22;;;;;;;10.58;89.65;101931.72;2054176;28;20919;-68
2022/06/16 00:58:57;;;;;;;4.78;2.17;;;;;;;10.55;89.85;101929.94;2053882;28;20116;-69
2022/06/16 00:59:59;;;;;;;4.55;2.13;;;;;;;10.53;89.58;101926.38;2045638;28;20052;-68
2022/06/16 01:01:01;;;;;;;3.30;2.10;;;;;;;10.52;89.99;101929.97;2053234;28;20039;-68
2022/06/16 01:02:05;;;;;;;4.80;2.35;;;;;;;10.50;90.27;101924.63;2053365;28;29197;-69
2022/06/16 01:03:09;;;;;;;4.72;2.17;;;;;;;10.52;90.14;101932.66;2045213;28;20052;-69
2022/06/16 01:05:32;;;;;;;6.13;2.05;;;;;;;10.46;90.63;101925.53;2054174;28;20073;-67
2022/06/16 01:06:35;;;;;;;4.65;2.15;;;;;;;10.43;89.91;101924.69;2048215;28;20510;-70
2022/06/16 01:07:44;;;;;;;5.55;2.13;;;;;;;10.41;90.44;101921.09;2045802;28;27603;-68
2022/06/16 01:08:51;;;;;;;6.07;2.43;;;;;;;10.39;90.12;101922.91;2053375;28;27753;-68
2022/06/16 01:09:55;;;;;;;5.60;2.65;;;;;;;10.36;90.34;101920.25;2051253;28;32090;-68
2022/06/16 01:11:05;;;;;;;4.72;2.50;;;;;;;10.34;90.28;101911.31;2053971;28;20982;-68
2022/06/16 01:14:13;;;;;;;4.82;2.20;;;;;;;10.31;91.17;101906.88;2038819;28;20044;-69
2022/06/16 01:15:45;;;;;;;3.58;2.00;;;;;;;10.32;92.20;101896.19;2045846;28;20043;-68
2022/06/16 01:16:51;;;;;;;4.43;2.15;;;;;;;10.37;92.07;101900.59;2042452;28;20901;-69
2022/06/16 01:17:59;;;;;;;5.03;2.42;;;;;;;10.40;92.50;101897.91;2038435;29;20040;-68
2022/06/16 01:19:31;;;;;;;5.07;2.20;;;;;;;10.38;91.93;101900.59;2044640;28;20640;-68
2022/06/16 01:20:46;;;;;;;6.53;2.42;;;;;;;10.26;91.45;101898.84;2053577;28;20256;-68
2022/06/16 01:22:01;;;;;;;4.55;1.55;;;;;;;10.22;91.29;101910.47;2046411;28;20048;-68
2022/06/16 01:23:20;;;;;;;3.67;2.28;;;;;;;10.17;91.81;101906.94;2048347;28;20056;-69
2022/06/16 01:24:50;;;;;;;6.85;2.45;;;;;;;10.13;91.05;101905.19;2038152;29;20048;-69
2022/06/16 01:26:22;;;;;;;6.07;2.63;;;;;;;10.08;91.76;101915.00;2043711;28;20099;-69
2022/06/16 01:28:11;;;;;;;4.43;2.20;;;;;;;10.05;92.06;101913.25;2046669;28;20163;-68
2022/06/16 01:29:30;;;;;;;5.22;2.30;;;;;;;10.01;92.22;101910.59;2045873;28;20043;-70
2022/06/16 01:31:30;;;;;;;4.50;2.53;;;;;;;9.97;92.84;101912.38;2053665;28;20043;-68
2022/06/16 01:33:07;;;;;;;8.70;2.67;;;;;;;9.91;92.35;101916.00;2074470;28;20046;-68
2022/06/16 01:34:22;;;;;;;7.60;3.60;;;;;;;9.89;93.05;101912.44;2046509;28;20048;-68
2022/06/16 01:35:55;;;;;;;4.13;2.67;;;;;;;9.89;93.25;101915.09;2046510;28;20040;-68
2022/06/16 01:37:08;;;;;;;6.32;2.70;;;;;;;9.87;93.53;101908.88;2045776;28;20873;-68
2022/06/16 01:38:32;;;;;;;3.63;2.38;;;;;;;9.84;93.27;101913.34;2047158;28;20047;-69
2022/06/16 01:40:11;;;;;;;7.85;3.33;;;;;;;9.83;93.15;101920.47;2043541;28;20125;-69
2022/06/16 01:41:17;;;;;;;7.47;3.15;;;;;;;9.82;94.08;101913.34;2045487;28;20533;-68
2022/06/16 01:42:54;;;;;;;8.02;3.90;;;;;;;9.80;94.12;101922.25;2045343;28;20162;-69
2022/06/16 01:44:13;;;;;;;7.78;3.45;;;;;;;9.79;94.53;101926.72;2045681;28;20099;-70
2022/06/16 01:46:02;;;;;;;5.55;3.15;;;;;;;9.77;94.16;101933.00;2049030;28;20043;-68
2022/06/16 01:47:19;;;;;;;4.95;2.88;;;;;;;9.77;94.42;101938.34;2039852;28;20041;-69
2022/06/16 01:48:23;;;;;;;4.05;3.03;;;;;;;9.77;93.84;101938.34;2054141;28;20047;-70
2022/06/16 01:49:33;;;;;;;5.68;2.90;;;;;;;9.77;93.48;101930.31;2053248;28;20047;-70
2022/06/16 01:50:52;;;;;;;4.88;2.65;;;;;;;9.80;94.55;101928.53;2051616;28;20081;-68
2022/06/16 01:52:02;;;;;;;6.45;2.83;;;;;;;9.76;94.56;101932.09;2049822;28;20121;-69
2022/06/16 01:53:19;;;;;;;4.93;3.38;;;;;;;9.81;94.62;101922.25;2053955;28;20035;-70
2022/06/16 01:54:39;;;;;;;8.85;3.90;;;;;;;9.89;95.84;101931.16;2051304;28;20089;-69
2022/06/16 01:55:59;;;;;;;6.35;3.33;;;;;;;9.87;95.22;101926.69;2053645;28;25474;-69
2022/06/16 01:57:01;;;;;;;;;;;;;;;9.82;94.81;101931.19;2046975;28;20360;-69
2022/06/16 01:58:21;;;;;;;6.28;2.72;;;;;;;9.79;94.37;101931.19;2040100;28;19973;-69
2022/06/16 01:59:29;;;;;;;7.10;3.72;;;;;;;9.76;94.67;101940.09;2045617;28;20052;-68
2022/06/16 02:00:33;;;;;;;6.18;2.70;;;;;;;9.74;94.89;101934.78;2045889;28;20921;-68
2022/06/16 02:01:45;;;;;;;6.85;3.83;;;;;;;9.74;95.31;101937.47;2052389;28;20051;-69
2022/06/16 02:02:58;;;;;;;6.32;3.55;;;;;;;9.72;95.51;101935.69;2052424;28;20854;-68
2022/06/16 02:04:20;;;;;;;6.85;3.08;;;;;;;9.76;95.67;101932.09;2053505;28;31121;-69
2022/06/16 02:05:51;;;;;;;8.02;3.38;;;;;;;9.77;95.21;101925.84;2049924;28;20121;-69
2022/06/16 02:06:57;;;;;;;7.68;3.55;;;;;;;9.79;95.93;101921.38;2041072;28;20147;-71
2022/06/16 02:08:16;;;;;;;11.02;4.03;;;;;;;9.81;96.30;101919.59;2052693;28;20048;-69
2022/06/16 02:09:27;;;;;;;8.07;3.83;;;;;;;9.90;96.68;101916.88;2034830;29;20040;-70
2022/06/16 02:10:37;;;;;;;8.15;3.88;;;;;;;9.92;96.34;101920.47;2042634;28;20945;-69
2022/06/16 02:11:44;;;;;;;7.78;3.70;;;;;;;10.01;96.70;101914.16;2051422;28;20055;-70
2022/06/16 02:12:59;;;;;;;5.55;3.45;;;;;;;9.88;95.23;101921.34;2044853;28;20130;-69
2022/06/16 02:14:36;;;;;;;8.23;3.63;;;;;;;9.83;95.36;101928.50;2053290;28;20844;-70
2022/06/16 02:16:14;;;;;;;5.45;3.30;;;;;;;9.81;95.55;101934.75;2046049;28;20040;-69
2022/06/16 02:17:19;;;;;;;6.55;3.00;;;;;;;9.76;95.60;101937.44;2052159;28;20051;-69
2022/06/16 02:18:28;;;;;;;6.25;3.13;;;;;;;9.75;96.01;101930.31;2053255;28;20043;-69
2022/06/16 02:19:31;;;;;;;6.95;3.30;;;;;;;9.71;95.38;101936.59;2054532;28;20166;-69
2022/06/16 02:21:13;;;;;;;6.25;3.22;;;;;;;9.67;94.93;101933.03;2044931;28;20194;-68
2022/06/16 02:22:17;;;;;;;5.53;3.45;;;;;;;9.63;95.30;101941.06;2045339;28;20137;-68
2022/06/16 02:23:25;;;;;;;6.20;3.30;;;;;;;9.61;95.26;101945.53;2047225;28;20065;-68
2022/06/16 02:24:30;;;;;;;5.85;2.95;;;;;;;9.60;96.12;101951.75;2052846;28;20938;-69
2022/06/16 02:25:32;;;;;;;6.68;3.42;;;;;;;9.57;95.21;101957.13;2050887;28;33105;-68
2022/06/16 02:26:35;;;;;;;5.13;3.30;;;;;;;9.54;96.08;101963.34;2045263;28;20040;-68
2022/06/16 02:27:36;;;;;;;6.28;3.70;;;;;;;9.53;95.46;101966.94;2044831;28;24860;-69
2022/06/16 02:28:55;;;;;;;9.52;3.50;;;;;;;9.50;96.48;101975.84;2053888;28;20031;-68
2022/06/16 02:29:57;;;;;;;7.18;3.40;;;;;;;9.51;96.30;101976.72;2048995;28;20047;-69
2022/06/16 02:31:29;;;;;;;6.40;3.47;;;;;;;9.49;96.08;101976.75;2038628;29;20182;-69
2022/06/16 02:32:59;;;;;;;5.15;3.08;;;;;;;9.48;96.63;101974.97;2053477;28;20043;-69
2022/06/16 02:34:43;;;;;;;5.97;3.40;;;;;;;9.41;96.29;101980.31;2040091;28;20976;-68
2022/06/16 02:36:15;;;;;;;6.80;3.40;;;;;;;9.39;96.32;101979.44;2053274;28;20932;-70
2022/06/16 02:37:35;;;;;;;4.30;3.10;;;;;;;9.35;96.84;101978.56;2044965;28;20044;-67
2022/06/16 02:39:03;;;;;;;6.95;3.92;;;;;;;9.30;96.17;101975.00;2053627;28;20185;-68
2022/06/16 02:41:01;;;;;;;9.10;4.78;;;;;;;9.29;96.45;101982.09;2049815;28;20044;-68
2022/06/16 02:42:31;;;;;;;6.88;3.83;;;;;;;9.23;96.19;101974.09;2046592;28;20125;-69
2022/06/16 02:43:59;;;;;;;7.45;4.10;;;;;;;9.20;97.14;101967.88;2046479;28;20067;-69
2022/06/16 02:45:24;;;;;;;8.18;4.90;;;;;;;9.31;97.81;101968.72;2039030;29;20107;-70
2022/06/16 02:47:06;;;;;;;8.65;5.80;;;;;;;9.41;98.92;101962.50;2039402;29;20129;-69
2022/06/16 02:48:19;;;;;;;8.38;5.25;;;;;;;9.33;97.76;101965.19;2043399;28;20047;-69
2022/06/16 02:49:39;;;;;;;8.30;4.75;;;;;;;9.28;96.85;101974.09;2046605;28;20048;-69
2022/06/16 02:51:06;;;;;;;7.72;5.38;;;;;;;9.28;97.84;101964.28;2042858;28;20048;-69
2022/06/16 02:52:21;;;;;;;8.50;4.35;;;;;;;9.21;97.76;101965.19;2049832;28;20044;-70
2022/06/16 02:55:14;;;;;;;7.88;4.75;;;;;;;9.16;97.40;101970.53;2046346;28;20040;-66
2022/06/16 02:56:58;;;;;;;7.82;5.05;;;;;;;9.12;97.11;101968.75;2054615;28;20725;-69
2022/06/16 02:58:03;;;;;;;9.80;5.22;;;;;;;9.15;97.71;101975.88;2049269;28;20052;-69
2022/06/16 02:59:55;;;;;;;6.70;4.45;;;;;;;9.13;97.28;101975.91;2053437;28;20829;-69
2022/06/16 03:01:01;;;;;;;9.40;5.10;;;;;;;9.12;97.88;101979.44;2046909;28;20054;-69
2022/06/16 03:02:24;;;;;;;6.97;4.55;;;;;;;9.14;98.49;101984.78;2054728;28;20066;-68
2022/06/16 03:03:36;;;;;;;9.63;5.25;;;;;;;9.16;98.11;101989.22;2048085;28;20048;-70
2022/06/16 03:04:56;;;;;;;7.82;5.75;;;;;;;9.18;99.15;101990.13;2048695;28;20094;-69
2022/06/16 03:05:59;;;;;;;7.22;4.75;;;;;;;9.15;97.96;101986.56;2053008;28;20107;-68
2022/06/16 03:07:01;;;;;;;7.85;5.03;;;;;;;9.16;98.69;101991.03;2046634;28;20048;-70
2022/06/16 03:08:03;;;;;;;8.05;5.30;;;;;;;9.18;98.63;101991.91;2054141;28;23334;-70
2022/06/16 03:09:11;;;;;;;6.72;4.45;;;;;;;9.17;98.38;101991.03;2053719;28;20116;-70
2022/06/16 03:10:50;;;;;;;8.07;4.82;;;;;;;9.21;98.60;101996.38;2046787;28;20080;-70
2022/06/16 03:11:40;;;;;;;8.07;4.47;;;;;;;9.21;97.86;101999.06;2054389;28;20242;-70
2022/06/16 03:12:46;;;;;;;7.28;4.30;;;;;;;9.17;98.02;102009.72;2046749;28;20800;-69
2022/06/16 03:13:52;;;;;;;6.45;4.40;;;;;;;9.25;99.20;102008.84;2046978;28;20113;-69
2022/06/16 03:15:00;;;;;;;10.40;4.90;;;;;;;9.22;97.69;102011.50;2046225;28;20071;-69
2022/06/16 03:16:04;;;;;;;10.38;5.40;;;;;;;9.21;97.82;102013.28;2038381;28;20048;-68
2022/06/16 03:17:09;;;;;;;7.30;4.22;;;;;;;9.17;98.17;102007.06;2054982;28;20927;-69
2022/06/16 03:18:12;;;;;;;7.13;5.07;;;;;;;9.22;98.94;102006.16;2054042;28;20043;-70
2022/06/16 03:19:13;;;;;;;9.57;6.20;;;;;;;9.35;98.86;102008.84;2046997;28;20190;-68
2022/06/16 03:20:18;;;;;;;8.70;5.57;;;;;;;9.30;99.05;102002.59;2054384;28;20124;-68
2022/06/16 03:21:20;;;;;;;7.90;5.68;;;;;;;9.33;99.21;101996.34;2054277;28;20050;-70
2022/06/16 03:22:24;;;;;;;8.30;4.20;;;;;;;9.31;98.23;101992.78;2054543;28;20063;-67
2022/06/16 03:23:25;;;;;;;6.65;4.90;;;;;;;9.31;98.45;101998.13;2046613;28;20162;-70
2022/06/16 03:24:30;;;;;;;9.95;4.93;;;;;;;9.30;98.99;101991.03;2054585;28;20036;-70
2022/06/16 03:25:35;;;;;;;7.68;5.40;;;;;;;9.40;98.98;101981.19;2054104;28;20132;-67
2022/06/16 03:26:42;;;;;;;9.50;4.78;;;;;;;9.38;98.33;101978.53;2054765;28;20054;-69
2022/06/16 03:27:43;;;;;;;7.57;5.13;;;;;;;9.39;97.91;101980.31;2053328;28;20043;-69
2022/06/16 03:28:45;;;;;;;8.55;5.43;;;;;;;9.48;99.59;101979.41;2046696;28;20071;-68
2022/06/16 03:29:52;;;;;;;7.15;5.28;;;;;;;9.51;99.10;101974.97;2053481;28;21002;-68
2022/06/16 03:30:53;;;;;;;11.32;6.28;;;;;;;9.58;98.93;101972.25;2038428;29;20052;-68
2022/06/16 03:31:56;;;;;;;8.82;5.50;;;;;;;9.59;98.76;101969.59;2038610;28;20123;-68
2022/06/16 03:33:02;;;;;;;9.48;5.50;;;;;;;9.66;98.81;101968.69;2054593;28;20983;-68
2022/06/16 03:34:08;;;;;;;8.48;5.55;;;;;;;9.65;98.80;101966.00;2045422;28;20040;-68
2022/06/16 03:35:10;;;;;;;9.32;5.30;;;;;;;9.78;98.55;101959.75;2038604;29;20118;-68
2022/06/16 03:36:13;;;;;;;9.60;5.88;;;;;;;9.85;98.75;101958.81;2038351;28;20757;-68
2022/06/16 03:37:16;;;;;;;9.98;6.35;;;;;;;9.89;98.30;101957.91;2046443;28;20491;-68
2022/06/16 03:39:25;;;;;;;9.13;5.82;;;;;;;9.91;98.01;101956.13;2046043;28;20102;-68
2022/06/16 03:40:27;;;;;;;8.25;5.50;;;;;;;9.93;97.78;101951.66;2038654;28;20088;-69
2022/06/16 03:41:33;;;;;;;7.15;4.72;;;;;;;9.92;97.88;101954.31;2038711;28;20110;-68
2022/06/16 03:42:40;;;;;;;6.40;4.75;;;;;;;9.93;97.18;101962.34;2054068;28;20048;-69
2022/06/16 03:43:42;;;;;;;7.78;5.25;;;;;;;10.04;97.61;101958.75;2046160;28;20055;-68
2022/06/16 03:44:54;;;;;;;9.05;4.95;;;;;;;10.08;97.83;101960.50;2038493;29;20102;-67
2022/06/16 03:45:56;;;;;;;6.32;4.80;;;;;;;10.09;96.76;101967.66;2046068;28;20118;-69
2022/06/16 03:46:59;;;;;;;8.02;5.20;;;;;;;10.17;97.45;101964.94;2045989;28;21038;-68
2022/06/16 03:48:09;;;;;;;11.70;5.75;;;;;;;10.19;96.85;101969.34;2039639;28;20115;-69
2022/06/16 03:49:14;;;;;;;7.63;4.55;;;;;;;10.19;96.87;101977.38;2054987;28;20039;-68
2022/06/16 03:50:26;;;;;;;5.85;4.05;;;;;;;10.21;96.34;101975.63;2052566;28;20166;-68
2022/06/16 03:51:30;;;;;;;8.93;4.70;;;;;;;10.27;95.99;101980.94;2052835;28;20051;-68
2022/06/16 03:52:36;;;;;;;6.65;4.00;;;;;;;10.29;96.03;101973.78;2054087;28;20950;-68
2022/06/16 03:53:39;;;;;;;6.18;3.70;;;;;;;10.33;95.54;101982.72;2046086;28;20884;-68
2022/06/16 03:54:41;;;;;;;7.47;4.28;;;;;;;10.36;95.76;101982.72;2038568;28;20040;-68
2022/06/16 03:55:47;;;;;;;5.47;4.05;;;;;;;10.43;95.17;101972.88;2038863;28;20060;-69
2022/06/16 03:56:50;;;;;;;7.32;4.68;;;;;;;10.48;95.51;101969.25;2038600;28;20917;-68
2022/06/16 03:57:52;;;;;;;4.95;3.95;;;;;;;10.52;94.96;101978.16;2046249;28;20028;-68
2022/06/16 03:58:58;;;;;;;5.10;3.67;;;;;;;10.58;94.96;101978.09;2046014;28;20090;-69
2022/06/16 04:00:01;;;;;;;6.50;3.75;;;;;;;10.62;94.59;101982.56;2039086;28;20055;-68
2022/06/16 04:01:21;;;;;;;4.90;3.42;;;;;;;10.69;94.57;101981.63;2046053;28;20082;-68
2022/06/16 04:02:23;;;;;;;7.40;4.35;;;;;;;10.75;94.11;101986.06;2046265;28;20040;-70
2022/06/16 04:04:48;;;;;;;6.20;4.20;;;;;;;10.96;94.47;101989.47;2047021;28;20046;-68
2022/06/16 04:05:51;;;;;;;6.28;3.80;;;;;;;11.05;93.63;101992.06;2037708;29;20048;-68
2022/06/16 04:06:55;;;;;;;7.93;4.22;;;;;;;11.11;93.07;101988.44;2038655;28;20052;-68
2022/06/16 04:08:01;;;;;;;3.88;2.55;;;;;;;11.18;92.79;101995.53;2054255;28;20142;-67
2022/06/16 04:09:05;;;;;;;8.23;3.55;;;;;;;11.27;92.12;102006.22;2054279;28;20164;-68
2022/06/16 04:10:11;;;;;;;4.43;3.42;;;;;;;11.38;91.96;102009.66;2046389;28;20444;-68
2022/06/16 04:11:30;;;;;;;6.97;3.50;;;;;;;11.55;91.10;102011.28;2046733;28;20162;-69
2022/06/16 04:12:35;;;;;;;5.13;3.35;;;;;;;11.79;90.51;102010.13;2046380;28;21026;-68
2022/06/16 04:13:38;;;;;;;6.60;3.80;;;;;;;11.95;89.90;102005.53;2045734;28;20047;-68
2022/06/16 04:14:41;;;;;;;7.30;3.60;;;;;;;12.17;88.58;102003.50;2038145;28;20183;-68
2022/06/16 04:15:46;;;;;;;5.75;3.30;;;;;;;12.41;87.22;102007.66;2045752;28;20102;-69
2022/06/16 04:16:53;;;;;;;8.80;3.60;;;;;;;12.75;86.26;102004.50;2045436;28;20777;-68
2022/06/16 04:18:07;;;;;;;4.90;2.60;;;;;;;13.17;85.06;102012.78;2051645;28;20161;-68
2022/06/16 04:19:21;;;;;;;4.55;2.63;;;;;;;13.65;84.45;102003.91;2046429;28;21007;-68
2022/06/16 04:20:24;;;;;;;4.97;2.38;;;;;;;14.11;82.98;102003.91;2045143;28;20047;-69
2022/06/16 04:21:31;;;;;;;3.65;2.30;;;;;;;14.44;80.03;102003.22;2045626;28;20073;-68
2022/06/16 04:22:51;;;;;;;5.20;2.17;;;;;;;14.99;77.87;102001.09;2048928;28;20174;-68
2022/06/16 04:23:56;;;;;;;3.03;1.95;;;;;;;15.43;74.36;102005.38;2053502;28;20031;-69
2022/06/16 04:24:59;;;;;;;6.40;2.13;;;;;;;15.75;72.71;102000.94;2046207;28;21011;-68
2022/06/16 04:26:01;;;;;;;5.55;1.30;;;;;;;16.15;72.90;101994.41;2045889;28;20103;-68
2022/06/16 04:27:03;;;;;;;3.97;1.80;;;;;;;16.58;71.67;102008.44;2045859;28;20043;-69
2022/06/16 04:28:07;;;;;;;3.00;1.45;;;;;;;17.04;70.03;102001.59;2045878;28;20043;-68
2022/06/16 04:29:15;;;;;;;1.90;1.45;;;;;;;17.47;68.37;102000.13;2054154;28;20161;-68
2022/06/16 04:30:18;;;;;;;3.70;1.67;;;;;;;17.82;63.51;101998.00;2053594;28;20236;-68
2022/06/16 04:31:22;;;;;;;1.70;1.30;;;;;;;17.84;64.74;102000.66;2046125;28;20048;-68
2022/06/16 04:32:24;;;;;;;3.10;1.60;;;;;;;17.99;62.30;102001.97;2054029;28;20036;-69
2022/06/16 04:33:27;;;;;;;2.28;1.02;;;;;;;18.73;63.23;101999.09;2052580;28;20135;-68
2022/06/16 04:34:37;;;;;;;1.30;1.10;;;;;;;18.81;59.48;101996.97;2053877;28;20052;-68
2022/06/16 04:35:41;;;;;;;3.97;1.30;;;;;;;19.51;60.25;101992.28;2053012;28;20039;-68
2022/06/16 04:36:45;;;;;;;4.65;1.20;;;;;;;19.58;58.08;101996.50;2053826;28;20047;-69
2022/06/16 04:37:53;;;;;;;3.28;1.00;;;;;;;19.76;54.95;101992.09;2053155;28;20161;-68
2022/06/16 04:38:57;;;;;;;4.72;1.45;;;;;;;20.16;54.00;101993.00;2053810;28;20828;-69
2022/06/16 04:40:00;;;;;;;3.38;1.25;;;;;;;20.67;53.77;101991.50;2055590;28;20132;-69
2022/06/16 04:41:02;;;;;;;2.70;1.10;;;;;;;21.10;53.99;101985.75;2045893;28;20253;-68
2022/06/16 04:42:05;;;;;;;2.03;1.00;;;;;;;21.61;52.01;101986.78;2053068;28;20825;-68
2022/06/16 04:43:08;;;;;;;3.17;0.57;;;;;;;21.77;50.32;101978.69;2053746;28;20894;-68
2022/06/16 04:44:10;;;;;;;2.03;1.02;;;;;;;21.64;51.58;101988.47;2046223;28;20095;-69
2022/06/16 04:45:13;;;;;;;3.35;0.95;;;;;;;22.27;48.08;101987.81;2053875;28;20050;-69
2022/06/16 04:46:17;;;;;;;2.28;0.85;;;;;;;22.43;48.60;101986.00;2053820;28;20165;-69
2022/06/16 04:47:21;;;;;;;3.50;1.00;;;;;;;22.68;46.71;101993.69;2053762;28;20047;-69
2022/06/16 04:48:27;;;;;;;2.80;1.00;;;;;;;22.99;45.78;101996.50;2052372;28;20039;-68
2022/06/16 04:49:34;;;;;;;3.55;0.90;;;;;;;23.51;45.53;101998.88;2046273;28;20841;-69
2022/06/16 04:50:37;;;;;;;3.25;1.00;;;;;;;23.29;46.78;102003.88;2054430;28;20043;-69
2022/06/16 04:51:39;;;;;;;4.82;0.95;;;;;;;23.19;46.70;101993.47;2053504;28;20032;-68
2022/06/16 04:52:46;;;;;;;3.22;0.90;;;;;;;23.05;46.45;101997.03;2046486;28;20040;-69
2022/06/16 04:53:52;;;;;;;3.90;1.15;;;;;;;23.47;46.14;101996.41;2053848;28;20093;-68
2022/06/16 04:55:20;;;;;;;1.83;0.60;;;;;;;24.06;43.63;102008.25;2049286;28;20052;-68
2022/06/16 04:56:58;;;;;;;1.60;0.80;;;;;;;23.82;44.43;102007.97;2045632;28;20059;-68
2022/06/16 04:58:24;;;;;;;2.50;1.10;;;;;;;24.87;43.43;102007.66;2037214;29;20114;-68
2022/06/16 04:59:43;;;;;;;1.88;0.82;;;;;;;24.89;42.57;102011.16;2045747;28;20048;-69
2022/06/16 05:01:00;;;;;;;3.10;0.90;;;;;;;24.48;39.94;102008.34;2048332;28;20089;-69
2022/06/16 05:02:28;;;;;;;3.47;1.20;;;;;;;24.23;43.36;102007.22;2045540;28;20059;-67
2022/06/16 05:03:35;;;;;;;2.22;0.85;;;;;;;24.19;43.83;102011.09;2037550;28;20048;-68
2022/06/16 05:05:04;;;;;;;1.75;0.80;;;;;;;24.58;43.52;102004.97;2044994;28;20052;-69
2022/06/16 05:06:16;;;;;;;2.70;0.70;;;;;;;25.24;41.81;102009.78;2045490;28;20860;-69
2022/06/16 05:07:41;;;;;;;2.80;1.20;;;;;;;25.52;40.22;102009.66;2042490;28;20056;-69
2022/06/16 05:09:04;;;;;;;2.17;0.75;;;;;;;25.04;41.23;102009.25;2046748;28;20044;-69
2022/06/16 05:10:15;;;;;;;3.72;1.00;;;;;;;24.90;42.53;102012.91;2054019;28;20047;-69
2022/06/16 05:11:30;;;;;;;2.22;0.77;;;;;;;25.70;40.47;101998.41;2054243;28;20043;-69
2022/06/16 05:12:49;;;;;;;1.73;0.55;;;;;;;26.40;39.69;102008.09;2051679;28;20047;-68
2022/06/16 05:14:02;;;;;;;6.80;1.02;;;;;;;26.19;39.65;102005.91;2049356;28;21394;-68
2022/06/16 05:15:23;;;;;;;2.08;0.80;;;;;;;26.50;39.29;102000.91;2053378;28;20057;-69
2022/06/16 05:16:43;;;;;;;3.58;1.00;;;;;;;25.82;38.45;101994.75;2052013;28;20771;-68
2022/06/16 05:17:56;;;;;;;1.95;0.77;;;;;;;25.27;39.72;102007.72;2054053;28;20046;-69
2022/06/16 05:19:08;;;;;;;3.38;1.17;;;;;;;24.13;41.22;102008.78;2052222;28;20878;-68
2022/06/16 05:20:18;;;;;;;3.33;0.73;;;;;;;23.87;43.32;102010.38;2048308;28;20048;-69
2022/06/16 05:21:40;;;;;;;2.45;0.90;;;;;;;22.72;46.15;102012.59;2069852;28;20069;-69
2022/06/16 05:22:57;;;;;;;2.83;0.50;;;;;;;22.76;46.66;102001.44;2053259;28;20828;-69
2022/06/16 05:24:27;;;;;;;3.50;1.05;;;;;;;21.77;48.42;102018.69;2053787;28;20040;-69
2022/06/16 05:26:05;;;;;;;3.47;1.10;;;;;;;21.93;48.66;102011.47;2031351;28;20049;-69
2022/06/16 05:27:10;;;;;;;1.70;0.90;;;;;;;21.83;48.22;102011.06;2037489;29;20048;-68
2022/06/16 05:28:21;;;;;;;3.28;0.80;;;;;;;22.90;45.98;102016.13;2039878;28;20199;-69
2022/06/16 05:29:41;;;;;;;4.38;0.90;;;;;;;22.93;45.33;102010.50;2049196;28;20082;-68
2022/06/16 05:30:52;;;;;;;3.30;1.00;;;;;;;23.28;45.62;102013.06;2052339;28;20040;-69
2022/06/16 05:32:13;;;;;;;4.60;1.10;;;;;;;23.44;44.31;102005.69;2048200;28;20052;-69
2022/06/16 05:33:38;;;;;;;2.40;1.02;;;;;;;23.85;44.00;101996.84;2053442;28;20047;-69
2022/06/16 05:35:01;;;;;;;5.40;1.00;;;;;;;24.19;42.18;102000.16;2050995;28;20800;-69
2022/06/16 05:36:21;;;;;;;5.10;1.15;;;;;;;24.73;42.12;102000.34;2046500;28;20392;-69
2022/06/16 05:37:37;;;;;;;3.33;1.20;;;;;;;24.74;40.93;102004.81;2053468;28;21030;-69
2022/06/16 05:39:02;;;;;;;4.65;1.60;;;;;;;25.10;41.01;101997.88;2042237;28;20183;-69
2022/06/16 05:40:36;;;;;;;3.45;1.27;;;;;;;24.93;40.64;102012.72;2053254;28;20927;-70
2022/06/16 05:41:56;;;;;;;4.75;1.10;;;;;;;26.16;39.03;101997.88;2047422;28;20051;-69
2022/06/16 05:43:07;;;;;;;3.30;0.82;;;;;;;25.60;40.43;102008.25;2053541;28;20427;-68
2022/06/16 05:44:26;;;;;;;3.67;1.10;;;;;;;25.04;41.38;102003.78;2050753;28;20043;-69